createdAt,value
2018-05-04T00:01:04.189Z,15.40
2018-05-04T00:03:32.446Z,15.40
2018-05-04T00:06:00.737Z,15.30
2018-05-04T00:08:29.006Z,15.30
2018-05-04T00:10:57.322Z,15.20
2018-05-04T00:13:25.615Z,15.20
2018-05-04T00:15:53.889Z,15.20
2018-05-04T00:18:22.171Z,15.10
2018-05-04T00:20:50.447Z,15.10
2018-05-04T00:23:18.735Z,15.10
2018-05-04T00:25:47.114Z,15.20
2018-05-04T00:28:15.371Z,15.20
2018-05-04T00:30:43.651Z,15.30
2018-05-04T00:33:11.966Z,15.30
2018-05-04T00:35:40.231Z,15.40
2018-05-04T00:38:08.494Z,15.40
2018-05-04T00:40:36.774Z,15.50
2018-05-04T00:43:05.063Z,15.40
2018-05-04T00:45:33.399Z,15.30
2018-05-04T00:48:01.666Z,15.30
2018-05-04T00:50:29.927Z,15.30
2018-05-04T00:52:58.217Z,15.20
2018-05-04T00:55:26.470Z,15.20
2018-05-04T00:57:54.757Z,15.10
2018-05-04T01:00:23.023Z,15.00
2018-05-04T01:02:51.371Z,14.90
2018-05-04T01:05:19.695Z,14.90
2018-05-04T01:07:48.005Z,14.90
2018-05-04T01:10:16.345Z,14.80
2018-05-04T01:12:44.541Z,14.80
2018-05-04T01:15:12.832Z,14.70
2018-05-04T01:17:41.097Z,14.70
2018-05-04T01:20:09.422Z,14.70
2018-05-04T01:22:37.693Z,14.70
2018-05-04T01:25:06.006Z,14.70
2018-05-04T01:27:34.282Z,14.70
2018-05-04T01:30:02.640Z,14.70
2018-05-04T01:32:30.889Z,14.70
2018-05-04T01:34:59.182Z,14.70
2018-05-04T01:37:27.446Z,14.70
2018-05-04T01:39:55.757Z,14.70
2018-05-04T01:42:24.023Z,14.70
2018-05-04T01:44:52.278Z,14.60
2018-05-04T01:47:20.572Z,14.60
2018-05-04T01:49:48.864Z,14.50
2018-05-04T01:52:17.187Z,14.40
2018-05-04T01:54:45.456Z,14.30
2018-05-04T01:57:13.772Z,14.20
2018-05-04T01:59:42.055Z,14.00
2018-05-04T02:02:10.395Z,13.90
2018-05-04T02:04:38.741Z,13.80
2018-05-04T02:07:07.063Z,13.70
2018-05-04T02:09:35.379Z,13.60
2018-05-04T02:12:03.758Z,13.60
2018-05-04T02:14:32.081Z,13.60
2018-05-04T02:17:00.424Z,13.60
2018-05-04T02:19:28.719Z,13.50
2018-05-04T02:21:57.030Z,13.50
2018-05-04T02:24:24.566Z,13.50
2018-05-04T02:26:52.861Z,13.40
2018-05-04T02:29:21.180Z,13.40
2018-05-04T02:31:49.463Z,13.40
2018-05-04T02:34:17.734Z,13.30
2018-05-04T02:36:46.022Z,13.30
2018-05-04T02:39:14.354Z,13.30
2018-05-04T02:41:42.771Z,13.30
2018-05-04T02:44:11.039Z,13.30
2018-05-04T02:46:39.334Z,13.30
2018-05-04T02:49:07.622Z,13.30
2018-05-04T02:51:48.210Z,13.40
2018-05-04T02:54:16.458Z,13.40
2018-05-04T02:56:44.809Z,13.50
2018-05-04T02:59:13.103Z,13.60
2018-05-04T03:01:41.382Z,13.60
2018-05-04T03:04:09.684Z,13.60
2018-05-04T03:06:37.991Z,13.80
2018-05-04T03:09:06.310Z,13.80
2018-05-04T03:11:34.594Z,13.80
2018-05-04T03:14:03.149Z,13.90
2018-05-04T03:16:31.390Z,13.90
2018-05-04T03:18:59.662Z,14.00
2018-05-04T03:21:27.989Z,14.10
2018-05-04T03:23:56.256Z,14.00
2018-05-04T03:26:24.580Z,13.90
2018-05-04T03:28:52.892Z,13.90
2018-05-04T03:31:21.203Z,13.90
2018-05-04T03:33:49.459Z,13.80
2018-05-04T03:36:17.767Z,13.80
2018-05-04T03:38:46.040Z,13.70
2018-05-04T03:41:14.318Z,13.60
2018-05-04T03:43:42.598Z,13.50
2018-05-04T03:46:10.893Z,13.50
2018-05-04T03:48:39.210Z,13.40
2018-05-04T03:51:07.502Z,13.40
2018-05-04T03:56:35.075Z,13.50
2018-05-04T03:59:14.739Z,13.40
2018-05-04T04:04:00.353Z,13.30
2018-05-04T04:06:28.691Z,13.30
2018-05-04T04:08:56.982Z,13.20
2018-05-04T04:11:25.312Z,13.20
2018-05-04T04:13:53.647Z,13.20
2018-05-04T04:16:21.937Z,13.20
2018-05-04T04:18:50.229Z,13.20
2018-05-04T04:21:18.509Z,13.10
2018-05-04T04:23:46.800Z,13.10
2018-05-04T04:26:15.067Z,13.20
2018-05-04T04:28:43.362Z,13.20
2018-05-04T04:31:11.647Z,13.20
2018-05-04T04:33:39.959Z,13.20
2018-05-04T04:36:08.336Z,13.10
2018-05-04T04:38:36.614Z,13.10
2018-05-04T04:41:05.010Z,13.10
2018-05-04T04:43:33.325Z,13.00
2018-05-04T04:46:01.613Z,13.00
2018-05-04T04:48:29.869Z,13.00
2018-05-04T04:50:58.181Z,13.00
2018-05-04T04:53:26.433Z,13.00
2018-05-04T04:55:54.728Z,12.90
2018-05-04T04:58:23.015Z,12.80
2018-05-04T05:00:51.342Z,12.80
2018-05-04T05:03:19.637Z,12.80
2018-05-04T05:05:47.931Z,12.80
2018-05-04T05:08:16.362Z,12.80
2018-05-04T05:10:45.198Z,12.80
2018-05-04T05:13:13.639Z,12.90
2018-05-04T05:15:42.020Z,12.80
2018-05-04T05:18:10.278Z,12.80
2018-05-04T05:20:38.598Z,12.80
2018-05-04T05:23:06.862Z,12.70
2018-05-04T05:25:35.166Z,12.70
2018-05-04T05:28:03.526Z,12.80
2018-05-04T05:30:31.846Z,12.80
2018-05-04T05:33:00.187Z,12.80
2018-05-04T05:35:28.496Z,12.80
2018-05-04T05:37:56.851Z,12.90
2018-05-04T05:40:25.143Z,12.90
2018-05-04T05:42:53.429Z,13.00
2018-05-04T05:45:21.746Z,12.90
2018-05-04T05:47:50.102Z,13.00
2018-05-04T05:50:18.467Z,13.00
2018-05-04T05:52:46.775Z,12.90
2018-05-04T05:55:15.053Z,12.90
2018-05-04T05:57:43.306Z,13.00
2018-05-04T06:00:11.615Z,13.00
2018-05-04T06:02:39.899Z,13.10
2018-05-04T06:05:08.209Z,13.20
2018-05-04T06:07:36.565Z,13.20
2018-05-04T06:10:04.855Z,13.30
2018-05-04T06:12:33.266Z,13.40
2018-05-04T06:15:02.712Z,13.40
2018-05-04T06:17:31.673Z,13.30
2018-05-04T06:20:06.622Z,13.40
2018-05-04T06:22:47.501Z,13.40
2018-05-04T06:25:17.052Z,13.40
2018-05-04T06:27:45.323Z,13.30
2018-05-04T06:30:13.610Z,13.30
2018-05-04T06:32:41.870Z,13.40
2018-05-04T06:35:10.191Z,13.40
2018-05-04T06:37:38.485Z,13.40
2018-05-04T06:40:06.850Z,13.40
2018-05-04T06:42:35.163Z,13.50
2018-05-04T06:45:03.511Z,13.60
2018-05-04T06:47:31.858Z,13.60
2018-05-04T06:50:00.175Z,13.60
2018-05-04T06:52:28.495Z,13.60
2018-05-04T06:55:13.115Z,13.70
2018-05-04T06:57:41.478Z,13.80
2018-05-04T07:00:09.818Z,13.80
2018-05-04T07:02:38.133Z,13.90
2018-05-04T07:05:06.459Z,13.90
2018-05-04T07:07:34.923Z,14.10
2018-05-04T07:10:03.817Z,14.10
2018-05-04T07:12:32.182Z,14.20
2018-05-04T07:15:00.478Z,14.30
2018-05-04T07:17:28.777Z,14.30
2018-05-04T07:19:57.047Z,14.50
2018-05-04T07:22:25.338Z,14.70
2018-05-04T07:24:53.718Z,14.90
2018-05-04T07:27:23.261Z,14.90
2018-05-04T07:29:51.574Z,15.00
2018-05-04T07:32:19.883Z,15.10
2018-05-04T07:34:48.182Z,15.20
2018-05-04T07:37:16.459Z,15.40
2018-05-04T07:39:44.774Z,15.50
2018-05-04T07:42:13.059Z,15.50
2018-05-04T07:44:41.478Z,15.60
2018-05-04T07:47:09.714Z,15.60
2018-05-04T07:49:38.098Z,15.60
2018-05-04T07:52:06.365Z,15.60
2018-05-04T07:54:34.666Z,15.60
2018-05-04T07:57:03.091Z,15.60
2018-05-04T07:59:31.407Z,15.70
2018-05-04T08:01:59.736Z,15.80
2018-05-04T08:04:28.051Z,15.90
2018-05-04T08:06:56.446Z,16.00
2018-05-04T08:09:24.730Z,16.00
2018-05-04T08:11:53.030Z,16.10
2018-05-04T08:14:21.355Z,16.10
2018-05-04T08:16:49.686Z,16.20
2018-05-04T08:19:17.990Z,16.30
2018-05-04T08:21:46.264Z,16.40
2018-05-04T08:24:14.574Z,16.50
2018-05-04T08:26:42.854Z,16.50
2018-05-04T08:29:11.184Z,16.50
2018-05-04T08:31:39.479Z,16.40
2018-05-04T08:34:07.792Z,16.40
2018-05-04T08:36:36.038Z,16.50
2018-05-04T08:39:05.034Z,16.60
2018-05-04T08:41:33.416Z,16.70
2018-05-04T08:44:01.742Z,16.80
2018-05-04T08:46:30.046Z,16.90
2018-05-04T08:48:58.314Z,17.00
2018-05-04T08:51:26.624Z,17.20
2018-05-04T08:53:54.894Z,17.20
2018-05-04T08:56:23.218Z,17.30
2018-05-04T08:58:51.506Z,17.30
2018-05-04T09:01:19.801Z,17.40
2018-05-04T09:03:48.075Z,17.50
2018-05-04T09:06:16.364Z,17.50
2018-05-04T09:08:44.671Z,17.70
2018-05-04T09:11:12.976Z,17.90
2018-05-04T09:13:41.272Z,18.00
2018-05-04T09:16:09.594Z,18.20
2018-05-04T09:18:37.914Z,18.30
2018-05-04T09:21:06.198Z,18.40
2018-05-04T09:23:34.502Z,18.50
2018-05-04T09:26:02.796Z,18.60
2018-05-04T09:28:31.090Z,18.80
2018-05-04T09:30:59.426Z,19.00
2018-05-04T09:33:27.768Z,19.20
2018-05-04T09:35:56.111Z,19.40
2018-05-04T09:38:24.529Z,19.50
2018-05-04T09:40:52.851Z,19.70
2018-05-04T09:43:21.213Z,20.00
2018-05-04T09:45:49.464Z,20.10
2018-05-04T09:48:17.750Z,20.10
2018-05-04T09:50:46.071Z,20.20
2018-05-04T09:53:14.414Z,20.30
2018-05-04T09:55:42.696Z,20.50
2018-05-04T09:58:11.030Z,20.60
2018-05-04T10:00:39.394Z,20.60
2018-05-04T10:03:07.722Z,20.70
2018-05-04T10:05:36.114Z,20.70
2018-05-04T10:08:04.409Z,20.70
2018-05-04T10:10:32.732Z,20.70
2018-05-04T10:13:01.039Z,20.60
2018-05-04T10:15:29.380Z,20.70
2018-05-04T10:17:57.929Z,20.70
2018-05-04T10:20:26.226Z,20.70
2018-05-04T10:22:54.543Z,20.80
2018-05-04T10:25:22.890Z,20.60
2018-05-04T10:27:51.202Z,20.50
2018-05-04T10:30:19.526Z,20.60
2018-05-04T10:32:47.894Z,20.70
2018-05-04T10:35:16.212Z,20.80
2018-05-04T10:37:44.537Z,20.70
2018-05-04T10:40:12.153Z,20.70
2018-05-04T10:42:40.469Z,20.80
2018-05-04T10:45:08.778Z,20.90
2018-05-04T10:47:37.454Z,20.90
2018-05-04T10:50:05.770Z,20.90
2018-05-04T10:52:34.166Z,20.90
2018-05-04T10:55:02.474Z,20.90
2018-05-04T10:57:30.830Z,20.90
2018-05-04T10:59:59.163Z,21.00
2018-05-04T11:02:27.471Z,21.10
2018-05-04T11:04:55.803Z,21.20
2018-05-04T11:07:24.110Z,21.20
2018-05-04T11:09:52.397Z,21.10
2018-05-04T11:12:20.805Z,21.10
2018-05-04T11:14:49.118Z,21.10
2018-05-04T11:20:22.239Z,21.00
2018-05-04T11:26:08.011Z,21.70
2018-05-04T11:52:43.027Z,22.60
2018-05-04T11:55:11.401Z,22.60
2018-05-04T11:57:39.747Z,22.60
2018-05-04T12:00:08.054Z,22.60
2018-05-04T12:02:36.510Z,22.30
2018-05-04T12:05:04.907Z,22.40
2018-05-04T12:07:33.302Z,22.50
2018-05-04T12:10:02.921Z,22.60
2018-05-04T12:12:31.988Z,22.80
2018-05-04T12:15:01.896Z,22.90
2018-05-04T12:17:30.217Z,23.10
2018-05-04T12:19:58.556Z,23.30
2018-05-04T12:22:26.879Z,23.30
2018-05-04T12:24:55.234Z,23.20
2018-05-04T12:27:23.594Z,23.10
2018-05-04T12:29:51.972Z,23.10
2018-05-04T12:32:20.331Z,23.00
2018-05-04T12:34:48.731Z,23.00
2018-05-04T12:37:17.092Z,23.00
2018-05-04T12:39:45.455Z,23.00
2018-05-04T12:42:13.782Z,23.00
2018-05-04T12:44:42.131Z,23.00
2018-05-04T12:47:10.480Z,23.10
2018-05-04T12:49:38.815Z,23.30
2018-05-04T12:52:07.195Z,23.40
2018-05-04T12:54:35.511Z,23.60
2018-05-04T12:57:03.846Z,23.70
2018-05-04T12:59:32.315Z,23.80
2018-05-04T13:02:00.712Z,23.70
2018-05-04T13:04:32.940Z,23.40
2018-05-04T13:07:03.417Z,23.30
2018-05-04T13:09:31.786Z,23.40
2018-05-04T13:12:00.196Z,23.50
2018-05-04T13:14:28.629Z,23.50
2018-05-04T13:16:57.032Z,23.50
2018-05-04T13:19:25.395Z,23.40
2018-05-04T13:21:53.718Z,23.40
2018-05-04T13:24:22.061Z,23.50
2018-05-04T13:26:50.477Z,23.60
2018-05-04T13:29:18.943Z,23.60
2018-05-04T13:31:47.296Z,23.50
2018-05-04T13:34:16.510Z,23.50
2018-05-04T13:36:45.792Z,23.30
2018-05-04T13:39:14.397Z,23.20
2018-05-04T13:41:43.222Z,23.10
2018-05-04T13:44:37.909Z,23.10
2018-05-04T13:47:08.320Z,23.10
2018-05-04T13:49:36.666Z,23.10
2018-05-04T13:52:04.999Z,23.00
2018-05-04T13:54:33.397Z,22.80
2018-05-04T13:57:01.766Z,22.90
2018-05-04T13:59:30.117Z,22.90
2018-05-04T14:01:58.586Z,23.00
2018-05-04T14:04:26.923Z,23.00
2018-05-04T14:06:55.347Z,23.00
2018-05-04T14:09:23.670Z,22.90
2018-05-04T15:54:59.259Z,22.90
2018-05-04T15:57:28.124Z,23.50
2018-05-04T15:59:56.545Z,23.40
2018-05-04T16:02:24.983Z,23.30
2018-05-04T16:04:53.294Z,23.10
2018-05-04T16:07:24.620Z,22.90
2018-05-04T16:09:53.100Z,22.90
2018-05-04T16:12:21.568Z,22.80
2018-05-04T16:14:49.868Z,22.70
2018-05-04T16:17:18.328Z,22.70
2018-05-04T16:19:48.040Z,22.70
2018-05-04T16:22:16.542Z,22.50
2018-05-04T16:24:48.767Z,22.40
2018-05-04T16:27:18.099Z,22.40
2018-05-04T16:29:46.524Z,22.30
2018-05-04T16:32:14.909Z,22.30
2018-05-04T16:34:43.314Z,22.20
2018-05-04T16:37:11.657Z,22.20
2018-05-04T16:39:41.330Z,22.10
2018-05-04T16:42:11.338Z,22.00
2018-05-04T16:44:39.701Z,21.90
2018-05-04T16:47:13.098Z,21.90
2018-05-04T16:49:41.481Z,21.90
2018-05-04T16:52:09.841Z,21.70
2018-05-04T16:54:39.427Z,21.60
2018-05-04T16:57:07.916Z,21.60
2018-05-04T16:59:37.402Z,21.50
2018-05-04T17:02:05.823Z,21.50
2018-05-04T17:04:34.178Z,21.40
2018-05-04T17:07:03.304Z,21.30
2018-05-04T17:09:31.827Z,21.20
2018-05-04T17:12:00.267Z,21.20
2018-05-04T17:14:28.708Z,21.10
2018-05-04T17:16:58.210Z,20.90
2018-05-04T17:19:27.907Z,20.80
2018-05-04T17:21:56.366Z,20.60
2018-05-04T17:24:24.835Z,20.50
2018-05-04T17:26:53.429Z,20.50
2018-05-04T17:29:21.859Z,20.50
2018-05-04T17:31:50.971Z,20.40
2018-05-04T17:34:19.367Z,20.30
2018-05-04T17:36:47.849Z,20.30
2018-05-04T17:39:21.700Z,20.30
2018-05-04T17:41:50.450Z,20.30
2018-05-04T17:44:19.924Z,20.30
2018-05-04T17:46:48.285Z,20.20
2018-05-04T17:49:16.735Z,20.20
2018-05-04T17:51:48.563Z,20.20
2018-05-04T17:54:16.992Z,20.10
2018-05-04T17:56:45.383Z,20.10
2018-05-04T17:59:14.350Z,19.90
2018-05-04T18:01:42.737Z,19.90
2018-05-04T18:04:11.144Z,19.80
2018-05-04T18:06:39.528Z,19.70
2018-05-04T18:09:07.914Z,19.70
2018-05-04T18:11:36.311Z,19.60
2018-05-04T18:14:04.809Z,19.60
2018-05-04T18:16:33.231Z,19.60
2018-05-04T18:19:01.646Z,19.50
2018-05-04T18:21:29.999Z,19.40
2018-05-04T18:23:57.617Z,19.40
2018-05-04T18:26:26.001Z,19.40
2018-05-04T18:28:54.392Z,19.40
2018-05-04T18:31:22.775Z,19.40
2018-05-04T18:33:51.128Z,19.40
2018-05-04T18:36:20.134Z,19.40
2018-05-04T18:38:48.525Z,19.20
2018-05-04T18:41:16.968Z,19.20
2018-05-04T18:43:45.327Z,19.20
2018-05-04T18:46:13.699Z,19.10
2018-05-04T18:48:42.092Z,19.00
2018-05-04T18:51:11.799Z,19.00
2018-05-04T18:53:42.031Z,19.00
2018-05-04T18:56:10.449Z,19.00
2018-05-04T18:58:38.888Z,18.90
2018-05-04T19:01:07.458Z,18.90
2018-05-04T19:03:35.870Z,18.80
2018-05-04T19:06:04.332Z,18.70
2018-05-04T19:08:32.840Z,18.60
2018-05-04T19:11:01.533Z,18.60
2018-05-04T19:13:29.967Z,18.50
2018-05-04T19:15:58.363Z,18.50
2018-05-04T19:18:26.815Z,18.40
2018-05-04T19:20:55.227Z,18.30
2018-05-04T19:23:23.684Z,18.20
2018-05-04T19:25:52.127Z,18.20
2018-05-04T19:28:20.572Z,18.10
2018-05-04T19:30:49.005Z,18.10
2018-05-04T19:33:17.472Z,18.10
2018-05-04T19:35:45.868Z,18.10
2018-05-04T19:38:14.327Z,18.10
2018-05-04T19:40:42.823Z,18.00
2018-05-04T19:43:11.222Z,18.10
2018-05-04T19:45:39.716Z,17.90
2018-05-04T19:48:08.190Z,17.80
2018-05-04T19:50:36.719Z,17.90
2018-05-04T19:53:05.167Z,17.90
2018-05-04T19:55:33.611Z,17.90
2018-05-04T19:58:02.003Z,17.80
2018-05-04T20:00:30.432Z,17.90
2018-05-04T20:02:58.825Z,17.90
2018-05-04T20:05:27.348Z,17.90
2018-05-04T20:07:55.800Z,17.80
2018-05-04T20:10:24.408Z,17.90
2018-05-04T20:12:52.856Z,17.80
2018-05-04T20:15:21.358Z,17.80
2018-05-04T20:17:49.711Z,17.70
2018-05-04T20:20:18.109Z,17.80
2018-05-04T20:22:45.804Z,17.80
2018-05-04T20:25:14.166Z,17.70
2018-05-04T20:27:42.560Z,17.70
2018-05-04T20:30:10.980Z,17.80
2018-05-04T20:32:39.410Z,17.90
2018-05-04T20:35:07.819Z,17.90
2018-05-04T20:37:36.818Z,18.00
2018-05-04T20:40:05.231Z,17.90
2018-05-04T20:42:34.574Z,17.80
2018-05-04T20:45:03.062Z,17.90
2018-05-04T20:47:31.506Z,17.90
2018-05-04T20:49:59.912Z,17.90
2018-05-04T20:52:28.324Z,17.70
2018-05-04T20:54:56.747Z,17.70
2018-05-04T20:57:25.218Z,17.70
2018-05-04T20:59:53.642Z,17.60
2018-05-04T21:02:22.057Z,17.60
2018-05-04T21:04:50.453Z,17.50
2018-05-04T21:07:18.841Z,17.20
2018-05-04T21:09:47.298Z,17.10
2018-05-04T21:12:15.625Z,17.00
2018-05-04T21:14:44.044Z,16.80
2018-05-04T21:17:12.391Z,16.80
2018-05-04T21:19:40.748Z,16.80
2018-05-04T21:22:09.120Z,16.80
2018-05-04T21:24:37.496Z,16.80
2018-05-04T21:27:05.842Z,16.80
2018-05-04T21:29:34.270Z,16.80
2018-05-04T21:32:02.645Z,16.80
2018-05-04T21:34:31.044Z,16.60
2018-05-04T21:36:59.396Z,16.50
2018-05-04T21:39:27.749Z,16.50
2018-05-04T21:41:56.134Z,16.40
2018-05-04T21:44:24.470Z,16.40
2018-05-04T21:46:52.782Z,16.30
2018-05-04T21:49:21.096Z,16.30
2018-05-04T21:51:49.554Z,16.30
2018-05-04T21:54:17.915Z,16.30
2018-05-04T21:56:46.318Z,16.30
2018-05-04T21:59:14.724Z,16.20
2018-05-04T22:01:43.059Z,16.10
2018-05-04T22:04:11.416Z,16.20
2018-05-04T22:06:39.877Z,16.10
2018-05-04T22:09:08.221Z,16.00
2018-05-04T22:11:36.594Z,15.90
2018-05-04T22:14:04.931Z,15.80
2018-05-04T22:16:33.303Z,15.70
2018-05-04T22:19:01.663Z,15.60
2018-05-04T22:21:30.071Z,15.60
2018-05-04T22:23:58.433Z,15.60
2018-05-04T22:26:26.783Z,15.60
2018-05-04T22:28:54.402Z,15.50
2018-05-04T22:31:22.792Z,15.50
2018-05-04T22:33:51.126Z,15.60
2018-05-04T22:36:19.527Z,15.50
2018-05-04T22:38:48.864Z,15.50
2018-05-04T22:41:17.242Z,15.50
2018-05-04T22:43:45.643Z,15.50
2018-05-04T22:46:14.010Z,15.40
2018-05-04T22:48:42.418Z,15.40
2018-05-04T22:51:10.854Z,15.40
2018-05-04T22:53:39.153Z,15.40
2018-05-04T22:56:07.593Z,15.40
2018-05-04T22:58:35.992Z,15.50
2018-05-04T23:01:04.487Z,15.50
2018-05-04T23:03:32.823Z,15.60
2018-05-04T23:06:01.225Z,15.70
2018-05-04T23:08:29.598Z,15.80
2018-05-04T23:10:57.978Z,15.80
2018-05-04T23:13:26.343Z,15.80
2018-05-04T23:15:54.659Z,15.80
2018-05-04T23:18:22.999Z,15.80
2018-05-04T23:20:51.361Z,15.60
2018-05-04T23:23:19.658Z,15.60
2018-05-04T23:25:48.042Z,15.60
2018-05-04T23:28:16.355Z,15.50
2018-05-04T23:30:44.724Z,15.50
2018-05-04T23:33:13.147Z,15.40
2018-05-04T23:35:41.491Z,15.30
2018-05-04T23:38:09.856Z,15.30
2018-05-04T23:40:38.188Z,15.20
2018-05-04T23:43:06.568Z,15.20
2018-05-04T23:45:34.919Z,15.20
2018-05-04T23:48:03.298Z,15.10
2018-05-04T23:50:31.612Z,15.10
2018-05-04T23:52:59.920Z,15.10
2018-05-04T23:55:28.323Z,15.10
2018-05-04T23:57:56.756Z,15.10
